sensor_id;sensor_type;location;lat;lon;timestamp;P1;durP1;ratioP1;P2;durP2;ratioP2
11835;SDS011;5977;51.972;7.640;2023-06-14T00:02:04;160.87;;;51.10;;
11835;SDS011;5977;51.972;7.640;2023-06-14T00:04:35;161.53;;;51.37;;
11835;SDS011;5977;51.972;7.640;2023-06-14T00:07:05;160.77;;;50.90;;
11835;SDS011;5977;51.972;7.640;2023-06-14T00:09:37;160.93;;;51.10;;
11835;SDS011;5977;51.972;7.640;2023-06-14T00:12:05;160.40;;;50.83;;
11835;SDS011;5977;51.972;7.640;2023-06-14T00:14:35;160.97;;;50.90;;
11835;SDS011;5977;51.972;7.640;2023-06-14T00:17:03;160.77;;;51.03;;
11835;SDS011;5977;51.972;7.640;2023-06-14T00:19:33;160.03;;;50.60;;
11835;SDS011;5977;51.972;7.640;2023-06-14T00:22:03;160.97;;;51.23;;
11835;SDS011;5977;51.972;7.640;2023-06-14T00:24:32;160.57;;;51.07;;
11835;SDS011;5977;51.972;7.640;2023-06-14T00:27:00;160.57;;;50.97;;
11835;SDS011;5977;51.972;7.640;2023-06-14T00:29:28;160.70;;;50.93;;
11835;SDS011;5977;51.972;7.640;2023-06-14T00:31:56;160.43;;;50.60;;
11835;SDS011;5977;51.972;7.640;2023-06-14T00:34:25;160.50;;;50.90;;
11835;SDS011;5977;51.972;7.640;2023-06-14T00:36:53;159.60;;;50.13;;
11835;SDS011;5977;51.972;7.640;2023-06-14T00:39:21;159.63;;;50.40;;
11835;SDS011;5977;51.972;7.640;2023-06-14T00:41:51;160.03;;;50.73;;
11835;SDS011;5977;51.972;7.640;2023-06-14T00:44:19;159.93;;;50.37;;
11835;SDS011;5977;51.972;7.640;2023-06-14T00:46:47;160.27;;;50.87;;
11835;SDS011;5977;51.972;7.640;2023-06-14T00:49:16;159.00;;;50.10;;
11835;SDS011;5977;51.972;7.640;2023-06-14T00:51:44;159.27;;;50.27;;
11835;SDS011;5977;51.972;7.640;2023-06-14T00:54:12;158.90;;;49.93;;
11835;SDS011;5977;51.972;7.640;2023-06-14T00:56:42;159.70;;;50.77;;
11835;SDS011;5977;51.972;7.640;2023-06-14T00:59:13;159.27;;;50.23;;
11835;SDS011;5977;51.972;7.640;2023-06-14T01:01:41;158.90;;;50.07;;
11835;SDS011;5977;51.972;7.640;2023-06-14T01:04:09;159.47;;;50.33;;
11835;SDS011;5977;51.972;7.640;2023-06-14T01:06:41;159.07;;;50.00;;
11835;SDS011;5977;51.972;7.640;2023-06-14T01:09:18;159.23;;;50.03;;
11835;SDS011;5977;51.972;7.640;2023-06-14T01:11:54;158.70;;;50.00;;
11835;SDS011;5977;51.972;7.640;2023-06-14T01:14:31;158.80;;;49.93;;
11835;SDS011;5977;51.972;7.640;2023-06-14T01:17:01;158.50;;;49.87;;
11835;SDS011;5977;51.972;7.640;2023-06-14T01:19:29;158.50;;;50.17;;
11835;SDS011;5977;51.972;7.640;2023-06-14T01:22:00;159.33;;;50.17;;
11835;SDS011;5977;51.972;7.640;2023-06-14T01:24:30;158.90;;;50.10;;
11835;SDS011;5977;51.972;7.640;2023-06-14T01:27:00;158.53;;;49.73;;
11835;SDS011;5977;51.972;7.640;2023-06-14T01:29:29;159.17;;;50.33;;
11835;SDS011;5977;51.972;7.640;2023-06-14T01:31:59;158.80;;;50.00;;
11835;SDS011;5977;51.972;7.640;2023-06-14T01:34:29;158.57;;;49.97;;
11835;SDS011;5977;51.972;7.640;2023-06-14T01:36:58;158.57;;;50.07;;
11835;SDS011;5977;51.972;7.640;2023-06-14T01:39:31;158.93;;;50.30;;
11835;SDS011;5977;51.972;7.640;2023-06-14T01:42:00;158.40;;;50.03;;
11835;SDS011;5977;51.972;7.640;2023-06-14T01:44:29;158.33;;;49.80;;
11835;SDS011;5977;51.972;7.640;2023-06-14T01:47:00;158.20;;;50.03;;
11835;SDS011;5977;51.972;7.640;2023-06-14T01:49:28;158.20;;;49.63;;
11835;SDS011;5977;51.972;7.640;2023-06-14T01:51:56;157.77;;;49.57;;
11835;SDS011;5977;51.972;7.640;2023-06-14T01:54:24;158.37;;;49.83;;
11835;SDS011;5977;51.972;7.640;2023-06-14T01:56:53;157.83;;;49.73;;
11835;SDS011;5977;51.972;7.640;2023-06-14T01:59:21;158.13;;;49.77;;
11835;SDS011;5977;51.972;7.640;2023-06-14T02:01:49;157.83;;;49.57;;
11835;SDS011;5977;51.972;7.640;2023-06-14T02:04:17;158.17;;;49.90;;
11835;SDS011;5977;51.972;7.640;2023-06-14T02:06:46;158.37;;;49.97;;
11835;SDS011;5977;51.972;7.640;2023-06-14T02:09:14;157.63;;;49.47;;
11835;SDS011;5977;51.972;7.640;2023-06-14T02:11:42;157.50;;;49.40;;
11835;SDS011;5977;51.972;7.640;2023-06-14T02:14:11;158.00;;;49.83;;
11835;SDS011;5977;51.972;7.640;2023-06-14T02:16:39;157.40;;;49.43;;
11835;SDS011;5977;51.972;7.640;2023-06-14T02:19:14;156.70;;;49.13;;
11835;SDS011;5977;51.972;7.640;2023-06-14T02:21:42;157.60;;;49.50;;
11835;SDS011;5977;51.972;7.640;2023-06-14T02:24:11;156.17;;;48.70;;
11835;SDS011;5977;51.972;7.640;2023-06-14T02:26:40;157.67;;;49.57;;
11835;SDS011;5977;51.972;7.640;2023-06-14T02:29:14;157.47;;;49.47;;
11835;SDS011;5977;51.972;7.640;2023-06-14T02:31:42;157.07;;;49.00;;
11835;SDS011;5977;51.972;7.640;2023-06-14T02:34:13;156.97;;;49.13;;
11835;SDS011;5977;51.972;7.640;2023-06-14T02:36:43;156.03;;;48.83;;
11835;SDS011;5977;51.972;7.640;2023-06-14T02:39:11;157.33;;;49.53;;
11835;SDS011;5977;51.972;7.640;2023-06-14T02:41:39;156.77;;;49.17;;
11835;SDS011;5977;51.972;7.640;2023-06-14T02:44:09;156.57;;;48.87;;
11835;SDS011;5977;51.972;7.640;2023-06-14T02:46:39;157.20;;;49.33;;
11835;SDS011;5977;51.972;7.640;2023-06-14T02:49:07;156.40;;;48.77;;
11835;SDS011;5977;51.972;7.640;2023-06-14T02:51:36;156.47;;;49.20;;
11835;SDS011;5977;51.972;7.640;2023-06-14T02:54:04;156.63;;;49.07;;
11835;SDS011;5977;51.972;7.640;2023-06-14T02:56:32;156.63;;;49.03;;
11835;SDS011;5977;51.972;7.640;2023-06-14T02:59:00;156.20;;;48.67;;
11835;SDS011;5977;51.972;7.640;2023-06-14T03:01:28;156.20;;;48.70;;
11835;SDS011;5977;51.972;7.640;2023-06-14T03:04:06;156.87;;;49.17;;
11835;SDS011;5977;51.972;7.640;2023-06-14T03:06:36;155.80;;;48.70;;
11835;SDS011;5977;51.972;7.640;2023-06-14T03:09:06;155.80;;;48.67;;
11835;SDS011;5977;51.972;7.640;2023-06-14T03:11:37;156.27;;;48.97;;
11835;SDS011;5977;51.972;7.640;2023-06-14T03:14:05;154.67;;;48.40;;
11835;SDS011;5977;51.972;7.640;2023-06-14T03:16:35;156.73;;;49.17;;
11835;SDS011;5977;51.972;7.640;2023-06-14T03:19:05;155.10;;;48.23;;
11835;SDS011;5977;51.972;7.640;2023-06-14T03:21:34;155.60;;;48.67;;
11835;SDS011;5977;51.972;7.640;2023-06-14T03:24:02;155.90;;;48.93;;
11835;SDS011;5977;51.972;7.640;2023-06-14T03:26:32;155.67;;;48.70;;
11835;SDS011;5977;51.972;7.640;2023-06-14T03:29:00;155.07;;;48.43;;
11835;SDS011;5977;51.972;7.640;2023-06-14T03:31:29;155.13;;;48.47;;
11835;SDS011;5977;51.972;7.640;2023-06-14T03:34:00;155.23;;;48.77;;
11835;SDS011;5977;51.972;7.640;2023-06-14T03:36:30;155.50;;;48.53;;
11835;SDS011;5977;51.972;7.640;2023-06-14T03:38:59;154.90;;;48.40;;
11835;SDS011;5977;51.972;7.640;2023-06-14T03:41:28;155.13;;;48.63;;
11835;SDS011;5977;51.972;7.640;2023-06-14T03:43:56;155.60;;;48.83;;
11835;SDS011;5977;51.972;7.640;2023-06-14T03:46:23;155.47;;;48.67;;
11835;SDS011;5977;51.972;7.640;2023-06-14T03:48:51;155.80;;;48.97;;
11835;SDS011;5977;51.972;7.640;2023-06-14T03:51:19;154.40;;;48.07;;
11835;SDS011;5977;51.972;7.640;2023-06-14T03:53:49;155.13;;;48.73;;
11835;SDS011;5977;51.972;7.640;2023-06-14T03:56:37;155.47;;;48.70;;
11835;SDS011;5977;51.972;7.640;2023-06-14T03:59:08;155.20;;;48.60;;
11835;SDS011;5977;51.972;7.640;2023-06-14T04:01:37;155.97;;;49.03;;
11835;SDS011;5977;51.972;7.640;2023-06-14T04:04:14;155.50;;;48.63;;
11835;SDS011;5977;51.972;7.640;2023-06-14T04:06:43;155.50;;;48.80;;
11835;SDS011;5977;51.972;7.640;2023-06-14T04:09:15;155.23;;;48.57;;
11835;SDS011;5977;51.972;7.640;2023-06-14T04:11:45;154.53;;;48.20;;
11835;SDS011;5977;51.972;7.640;2023-06-14T04:14:13;156.37;;;49.17;;
11835;SDS011;5977;51.972;7.640;2023-06-14T04:16:41;154.50;;;48.50;;
11835;SDS011;5977;51.972;7.640;2023-06-14T04:19:09;155.13;;;48.80;;
11835;SDS011;5977;51.972;7.640;2023-06-14T04:21:37;155.57;;;49.10;;
11835;SDS011;5977;51.972;7.640;2023-06-14T04:24:05;155.50;;;48.87;;
11835;SDS011;5977;51.972;7.640;2023-06-14T04:26:43;154.93;;;48.67;;
11835;SDS011;5977;51.972;7.640;2023-06-14T04:29:13;155.17;;;48.87;;
11835;SDS011;5977;51.972;7.640;2023-06-14T04:31:46;155.37;;;49.20;;
11835;SDS011;5977;51.972;7.640;2023-06-14T04:34:14;156.87;;;49.90;;
11835;SDS011;5977;51.972;7.640;2023-06-14T04:36:50;156.70;;;50.03;;
11835;SDS011;5977;51.972;7.640;2023-06-14T04:39:20;156.07;;;49.73;;
11835;SDS011;5977;51.972;7.640;2023-06-14T04:41:50;157.27;;;50.40;;
11835;SDS011;5977;51.972;7.640;2023-06-14T04:44:19;157.07;;;50.17;;
11835;SDS011;5977;51.972;7.640;2023-06-14T04:46:48;158.33;;;51.10;;
11835;SDS011;5977;51.972;7.640;2023-06-14T04:49:21;158.67;;;51.17;;
11835;SDS011;5977;51.972;7.640;2023-06-14T04:51:53;158.67;;;51.20;;
11835;SDS011;5977;51.972;7.640;2023-06-14T04:54:25;158.27;;;51.07;;
11835;SDS011;5977;51.972;7.640;2023-06-14T04:56:55;159.00;;;51.67;;
11835;SDS011;5977;51.972;7.640;2023-06-14T04:59:25;159.43;;;51.73;;
11835;SDS011;5977;51.972;7.640;2023-06-14T05:01:53;159.40;;;51.67;;
11835;SDS011;5977;51.972;7.640;2023-06-14T05:04:23;158.83;;;51.10;;
11835;SDS011;5977;51.972;7.640;2023-06-14T05:06:52;159.10;;;51.40;;
11835;SDS011;5977;51.972;7.640;2023-06-14T05:09:21;158.03;;;50.50;;
11835;SDS011;5977;51.972;7.640;2023-06-14T05:11:49;157.67;;;50.03;;
11835;SDS011;5977;51.972;7.640;2023-06-14T05:14:19;157.97;;;50.43;;
11835;SDS011;5977;51.972;7.640;2023-06-14T05:16:50;157.80;;;50.27;;
11835;SDS011;5977;51.972;7.640;2023-06-14T05:19:17;157.20;;;50.00;;
11835;SDS011;5977;51.972;7.640;2023-06-14T05:21:47;158.50;;;50.87;;
11835;SDS011;5977;51.972;7.640;2023-06-14T05:24:15;157.80;;;50.37;;
11835;SDS011;5977;51.972;7.640;2023-06-14T05:26:44;158.13;;;50.60;;
11835;SDS011;5977;51.972;7.640;2023-06-14T05:29:12;157.30;;;50.10;;
11835;SDS011;5977;51.972;7.640;2023-06-14T05:31:42;157.43;;;50.17;;
11835;SDS011;5977;51.972;7.640;2023-06-14T05:34:11;158.13;;;50.53;;
11835;SDS011;5977;51.972;7.640;2023-06-14T05:36:38;157.57;;;50.33;;
11835;SDS011;5977;51.972;7.640;2023-06-14T05:39:06;157.50;;;50.60;;
11835;SDS011;5977;51.972;7.640;2023-06-14T05:41:34;157.53;;;50.37;;
11835;SDS011;5977;51.972;7.640;2023-06-14T05:44:02;157.70;;;50.50;;
11835;SDS011;5977;51.972;7.640;2023-06-14T05:46:30;157.63;;;50.43;;
11835;SDS011;5977;51.972;7.640;2023-06-14T05:49:00;157.30;;;50.30;;
11835;SDS011;5977;51.972;7.640;2023-06-14T05:51:27;157.87;;;50.73;;
11835;SDS011;5977;51.972;7.640;2023-06-14T05:53:56;157.43;;;50.13;;
11835;SDS011;5977;51.972;7.640;2023-06-14T05:56:24;157.43;;;50.20;;
11835;SDS011;5977;51.972;7.640;2023-06-14T05:58:52;157.27;;;50.03;;
11835;SDS011;5977;51.972;7.640;2023-06-14T06:01:20;158.17;;;50.70;;
11835;SDS011;5977;51.972;7.640;2023-06-14T06:03:48;157.73;;;50.20;;
11835;SDS011;5977;51.972;7.640;2023-06-14T06:06:17;157.90;;;50.83;;
11835;SDS011;5977;51.972;7.640;2023-06-14T06:08:45;158.07;;;50.83;;
11835;SDS011;5977;51.972;7.640;2023-06-14T06:11:13;158.40;;;50.90;;
11835;SDS011;5977;51.972;7.640;2023-06-14T06:13:41;157.63;;;50.30;;
11835;SDS011;5977;51.972;7.640;2023-06-14T06:16:09;157.63;;;50.27;;
11835;SDS011;5977;51.972;7.640;2023-06-14T06:18:37;158.13;;;51.03;;
11835;SDS011;5977;51.972;7.640;2023-06-14T06:21:05;158.63;;;51.03;;
11835;SDS011;5977;51.972;7.640;2023-06-14T06:23:34;158.00;;;51.00;;
11835;SDS011;5977;51.972;7.640;2023-06-14T06:26:04;158.17;;;50.93;;
11835;SDS011;5977;51.972;7.640;2023-06-14T06:28:32;158.43;;;50.83;;
11835;SDS011;5977;51.972;7.640;2023-06-14T06:31:00;158.33;;;51.07;;
11835;SDS011;5977;51.972;7.640;2023-06-14T06:33:30;158.63;;;50.70;;
11835;SDS011;5977;51.972;7.640;2023-06-14T06:35:58;159.57;;;51.70;;
11835;SDS011;5977;51.972;7.640;2023-06-14T06:38:26;159.57;;;51.93;;
11835;SDS011;5977;51.972;7.640;2023-06-14T06:40:55;160.13;;;52.33;;
11835;SDS011;5977;51.972;7.640;2023-06-14T06:43:24;160.33;;;52.53;;
11835;SDS011;5977;51.972;7.640;2023-06-14T06:45:52;160.43;;;53.10;;
11835;SDS011;5977;51.972;7.640;2023-06-14T06:48:19;160.50;;;53.23;;
11835;SDS011;5977;51.972;7.640;2023-06-14T06:50:47;161.10;;;53.80;;
11835;SDS011;5977;51.972;7.640;2023-06-14T06:53:15;161.73;;;54.27;;
11835;SDS011;5977;51.972;7.640;2023-06-14T06:56:01;160.97;;;54.13;;
11835;SDS011;5977;51.972;7.640;2023-06-14T06:58:30;161.00;;;54.37;;
11835;SDS011;5977;51.972;7.640;2023-06-14T07:00:58;161.10;;;54.33;;
11835;SDS011;5977;51.972;7.640;2023-06-14T07:03:26;161.67;;;54.57;;
11835;SDS011;5977;51.972;7.640;2023-06-14T07:05:54;161.10;;;54.33;;
11835;SDS011;5977;51.972;7.640;2023-06-14T07:08:22;161.93;;;55.30;;
11835;SDS011;5977;51.972;7.640;2023-06-14T07:10:50;161.37;;;55.20;;
11835;SDS011;5977;51.972;7.640;2023-06-14T07:13:19;161.40;;;54.57;;
11835;SDS011;5977;51.972;7.640;2023-06-14T07:15:47;161.97;;;55.50;;
11835;SDS011;5977;51.972;7.640;2023-06-14T07:18:15;160.93;;;55.03;;
11835;SDS011;5977;51.972;7.640;2023-06-14T07:20:43;162.13;;;55.80;;
11835;SDS011;5977;51.972;7.640;2023-06-14T07:23:11;161.13;;;54.63;;
11835;SDS011;5977;51.972;7.640;2023-06-14T07:25:39;160.90;;;54.53;;
11835;SDS011;5977;51.972;7.640;2023-06-14T07:28:07;161.27;;;55.20;;
11835;SDS011;5977;51.972;7.640;2023-06-14T07:30:36;161.20;;;55.07;;
11835;SDS011;5977;51.972;7.640;2023-06-14T07:33:04;161.67;;;55.40;;
11835;SDS011;5977;51.972;7.640;2023-06-14T07:35:34;161.33;;;54.80;;
11835;SDS011;5977;51.972;7.640;2023-06-14T07:38:02;161.70;;;55.40;;
11835;SDS011;5977;51.972;7.640;2023-06-14T07:40:30;162.27;;;55.90;;
11835;SDS011;5977;51.972;7.640;2023-06-14T07:42:58;161.90;;;55.67;;
11835;SDS011;5977;51.972;7.640;2023-06-14T07:45:27;161.90;;;55.70;;
11835;SDS011;5977;51.972;7.640;2023-06-14T07:47:57;161.63;;;55.33;;
11835;SDS011;5977;51.972;7.640;2023-06-14T07:50:25;161.67;;;55.67;;
11835;SDS011;5977;51.972;7.640;2023-06-14T07:52:53;161.47;;;55.40;;
11835;SDS011;5977;51.972;7.640;2023-06-14T07:55:20;162.13;;;55.90;;
11835;SDS011;5977;51.972;7.640;2023-06-14T07:57:48;160.50;;;54.87;;
11835;SDS011;5977;51.972;7.640;2023-06-14T08:00:17;162.00;;;55.83;;
11835;SDS011;5977;51.972;7.640;2023-06-14T08:02:46;161.43;;;55.50;;
11835;SDS011;5977;51.972;7.640;2023-06-14T08:05:15;161.87;;;55.40;;
11835;SDS011;5977;51.972;7.640;2023-06-14T08:07:44;161.23;;;55.30;;
11835;SDS011;5977;51.972;7.640;2023-06-14T08:10:12;161.33;;;55.67;;
11835;SDS011;5977;51.972;7.640;2023-06-14T08:12:41;160.73;;;54.83;;
11835;SDS011;5977;51.972;7.640;2023-06-14T08:15:09;161.10;;;55.47;;
11835;SDS011;5977;51.972;7.640;2023-06-14T08:17:40;161.03;;;55.73;;
11835;SDS011;5977;51.972;7.640;2023-06-14T08:20:09;162.10;;;55.80;;
11835;SDS011;5977;51.972;7.640;2023-06-14T08:22:39;162.53;;;56.20;;
11835;SDS011;5977;51.972;7.640;2023-06-14T08:25:08;161.20;;;55.23;;
11835;SDS011;5977;51.972;7.640;2023-06-14T08:27:37;161.17;;;55.40;;
11835;SDS011;5977;51.972;7.640;2023-06-14T08:30:06;161.87;;;56.00;;
11835;SDS011;5977;51.972;7.640;2023-06-14T08:32:36;162.00;;;56.10;;
11835;SDS011;5977;51.972;7.640;2023-06-14T08:35:04;161.53;;;55.70;;
11835;SDS011;5977;51.972;7.640;2023-06-14T08:37:33;161.27;;;55.90;;
11835;SDS011;5977;51.972;7.640;2023-06-14T08:40:12;160.77;;;55.47;;
11835;SDS011;5977;51.972;7.640;2023-06-14T08:42:41;162.00;;;56.07;;
11835;SDS011;5977;51.972;7.640;2023-06-14T08:45:09;161.37;;;55.97;;
11835;SDS011;5977;51.972;7.640;2023-06-14T08:47:37;161.33;;;56.10;;
11835;SDS011;5977;51.972;7.640;2023-06-14T08:50:07;161.70;;;55.70;;
11835;SDS011;5977;51.972;7.640;2023-06-14T08:52:54;161.70;;;56.30;;
11835;SDS011;5977;51.972;7.640;2023-06-14T08:55:24;161.30;;;55.93;;
11835;SDS011;5977;51.972;7.640;2023-06-14T08:57:53;161.23;;;55.77;;
11835;SDS011;5977;51.972;7.640;2023-06-14T09:00:22;162.00;;;56.50;;
11835;SDS011;5977;51.972;7.640;2023-06-14T09:02:50;161.10;;;56.00;;
11835;SDS011;5977;51.972;7.640;2023-06-14T09:05:24;161.57;;;56.30;;
11835;SDS011;5977;51.972;7.640;2023-06-14T09:07:52;161.93;;;56.50;;
11835;SDS011;5977;51.972;7.640;2023-06-14T09:10:24;161.03;;;55.60;;
11835;SDS011;5977;51.972;7.640;2023-06-14T09:12:53;161.30;;;56.07;;
11835;SDS011;5977;51.972;7.640;2023-06-14T09:15:21;160.93;;;56.10;;
11835;SDS011;5977;51.972;7.640;2023-06-14T09:17:50;161.27;;;56.20;;
11835;SDS011;5977;51.972;7.640;2023-06-14T09:20:18;160.93;;;55.93;;
11835;SDS011;5977;51.972;7.640;2023-06-14T09:22:46;161.50;;;56.33;;
11835;SDS011;5977;51.972;7.640;2023-06-14T09:25:14;162.03;;;56.50;;
11835;SDS011;5977;51.972;7.640;2023-06-14T09:28:06;161.23;;;56.13;;
11835;SDS011;5977;51.972;7.640;2023-06-14T09:30:36;161.47;;;56.10;;
11835;SDS011;5977;51.972;7.640;2023-06-14T09:33:04;160.80;;;55.70;;
11835;SDS011;5977;51.972;7.640;2023-06-14T09:35:32;162.43;;;57.00;;
11835;SDS011;5977;51.972;7.640;2023-06-14T09:38:00;161.60;;;56.50;;
11835;SDS011;5977;51.972;7.640;2023-06-14T09:40:28;161.53;;;56.40;;
11835;SDS011;5977;51.972;7.640;2023-06-14T09:43:03;161.93;;;56.63;;
11835;SDS011;5977;51.972;7.640;2023-06-14T09:45:37;161.43;;;56.07;;
11835;SDS011;5977;51.972;7.640;2023-06-14T09:48:06;161.10;;;56.53;;
11835;SDS011;5977;51.972;7.640;2023-06-14T09:50:35;161.77;;;56.43;;
11835;SDS011;5977;51.972;7.640;2023-06-14T09:53:05;161.07;;;56.60;;
11835;SDS011;5977;51.972;7.640;2023-06-14T09:55:34;161.57;;;56.50;;
11835;SDS011;5977;51.972;7.640;2023-06-14T09:58:04;160.93;;;56.17;;
11835;SDS011;5977;51.972;7.640;2023-06-14T10:00:35;161.23;;;56.40;;
11835;SDS011;5977;51.972;7.640;2023-06-14T10:03:05;161.23;;;56.70;;
11835;SDS011;5977;51.972;7.640;2023-06-14T10:05:38;162.00;;;56.93;;
11835;SDS011;5977;51.972;7.640;2023-06-14T10:08:10;161.47;;;56.43;;
11835;SDS011;5977;51.972;7.640;2023-06-14T10:10:42;161.80;;;57.07;;
11835;SDS011;5977;51.972;7.640;2023-06-14T10:13:11;161.33;;;56.83;;
11835;SDS011;5977;51.972;7.640;2023-06-14T10:15:42;160.83;;;56.03;;
11835;SDS011;5977;51.972;7.640;2023-06-14T10:18:19;161.63;;;57.00;;
11835;SDS011;5977;51.972;7.640;2023-06-14T10:20:55;161.17;;;56.90;;
11835;SDS011;5977;51.972;7.640;2023-06-14T10:23:31;161.67;;;57.20;;
11835;SDS011;5977;51.972;7.640;2023-06-14T10:26:02;160.93;;;57.20;;
11835;SDS011;5977;51.972;7.640;2023-06-14T10:28:31;160.90;;;56.90;;
11835;SDS011;5977;51.972;7.640;2023-06-14T10:31:07;161.80;;;57.80;;
11835;SDS011;5977;51.972;7.640;2023-06-14T10:33:38;160.77;;;57.33;;
11835;SDS011;5977;51.972;7.640;2023-06-14T10:36:25;161.63;;;57.87;;
11835;SDS011;5977;51.972;7.640;2023-06-14T10:38:58;161.33;;;57.93;;
11835;SDS011;5977;51.972;7.640;2023-06-14T10:41:27;161.90;;;57.47;;
11835;SDS011;5977;51.972;7.640;2023-06-14T10:47:00;161.80;;;58.27;;
11835;SDS011;5977;51.972;7.640;2023-06-14T10:49:36;160.97;;;57.50;;
11835;SDS011;5977;51.972;7.640;2023-06-14T10:52:09;161.07;;;57.53;;
11835;SDS011;5977;51.972;7.640;2023-06-14T10:57:43;161.53;;;57.83;;
11835;SDS011;5977;51.972;7.640;2023-06-14T11:00:18;162.20;;;58.03;;
11835;SDS011;5977;51.972;7.640;2023-06-14T11:02:56;161.37;;;57.67;;
11835;SDS011;5977;51.972;7.640;2023-06-14T11:06:00;161.97;;;58.10;;
11835;SDS011;5977;51.972;7.640;2023-06-14T11:08:40;161.93;;;58.00;;
11835;SDS011;5977;51.972;7.640;2023-06-14T11:11:21;161.70;;;57.90;;
11835;SDS011;5977;51.972;7.640;2023-06-14T11:13:50;161.97;;;57.53;;
11835;SDS011;5977;51.972;7.640;2023-06-14T11:16:19;161.90;;;57.97;;
11835;SDS011;5977;51.972;7.640;2023-06-14T11:18:48;161.83;;;58.20;;
11835;SDS011;5977;51.972;7.640;2023-06-14T11:21:16;161.03;;;57.10;;
11835;SDS011;5977;51.972;7.640;2023-06-14T11:23:48;162.00;;;57.77;;
11835;SDS011;5977;51.972;7.640;2023-06-14T11:26:24;161.23;;;57.40;;
11835;SDS011;5977;51.972;7.640;2023-06-14T11:28:56;163.03;;;58.63;;
11835;SDS011;5977;51.972;7.640;2023-06-14T11:31:25;161.53;;;57.87;;
11835;SDS011;5977;51.972;7.640;2023-06-14T11:33:57;161.87;;;57.77;;
11835;SDS011;5977;51.972;7.640;2023-06-14T11:36:26;161.70;;;58.30;;
11835;SDS011;5977;51.972;7.640;2023-06-14T11:38:59;161.67;;;57.73;;
11835;SDS011;5977;51.972;7.640;2023-06-14T11:41:33;161.40;;;57.60;;
11835;SDS011;5977;51.972;7.640;2023-06-14T11:44:03;162.17;;;58.40;;
11835;SDS011;5977;51.972;7.640;2023-06-14T11:46:32;162.07;;;58.10;;
11835;SDS011;5977;51.972;7.640;2023-06-14T11:49:02;161.47;;;57.40;;
11835;SDS011;5977;51.972;7.640;2023-06-14T11:51:31;162.37;;;58.00;;
11835;SDS011;5977;51.972;7.640;2023-06-14T11:54:00;162.67;;;58.50;;
11835;SDS011;5977;51.972;7.640;2023-06-14T11:56:29;162.83;;;58.33;;
11835;SDS011;5977;51.972;7.640;2023-06-14T11:58:58;161.40;;;57.90;;
11835;SDS011;5977;51.972;7.640;2023-06-14T12:01:26;161.00;;;57.50;;
11835;SDS011;5977;51.972;7.640;2023-06-14T12:03:57;160.50;;;57.40;;
11835;SDS011;5977;51.972;7.640;2023-06-14T12:06:28;161.17;;;57.90;;
11835;SDS011;5977;51.972;7.640;2023-06-14T12:08:59;160.77;;;57.23;;
11835;SDS011;5977;51.972;7.640;2023-06-14T12:11:31;160.87;;;57.87;;
11835;SDS011;5977;51.972;7.640;2023-06-14T12:14:00;159.63;;;56.47;;
11835;SDS011;5977;51.972;7.640;2023-06-14T12:16:30;161.40;;;58.13;;
11835;SDS011;5977;51.972;7.640;2023-06-14T12:19:00;160.53;;;57.40;;
11835;SDS011;5977;51.972;7.640;2023-06-14T12:21:30;160.60;;;57.43;;
11835;SDS011;5977;51.972;7.640;2023-06-14T12:23:59;161.17;;;58.10;;
11835;SDS011;5977;51.972;7.640;2023-06-14T12:26:27;160.97;;;58.00;;
11835;SDS011;5977;51.972;7.640;2023-06-14T12:28:55;160.03;;;57.23;;
11835;SDS011;5977;51.972;7.640;2023-06-14T12:31:24;160.83;;;57.60;;
11835;SDS011;5977;51.972;7.640;2023-06-14T12:33:52;160.17;;;56.80;;
11835;SDS011;5977;51.972;7.640;2023-06-14T12:36:20;161.70;;;59.00;;
11835;SDS011;5977;51.972;7.640;2023-06-14T12:38:50;160.73;;;57.47;;
11835;SDS011;5977;51.972;7.640;2023-06-14T12:41:19;160.70;;;57.13;;
11835;SDS011;5977;51.972;7.640;2023-06-14T12:43:49;160.73;;;57.67;;
11835;SDS011;5977;51.972;7.640;2023-06-14T12:46:17;160.57;;;57.03;;
11835;SDS011;5977;51.972;7.640;2023-06-14T12:48:45;160.07;;;56.77;;
11835;SDS011;5977;51.972;7.640;2023-06-14T12:51:13;160.43;;;57.40;;
11835;SDS011;5977;51.972;7.640;2023-06-14T12:53:41;160.20;;;56.60;;
11835;SDS011;5977;51.972;7.640;2023-06-14T12:56:11;160.63;;;57.80;;
11835;SDS011;5977;51.972;7.640;2023-06-14T12:58:39;161.23;;;58.07;;
11835;SDS011;5977;51.972;7.640;2023-06-14T13:01:07;160.47;;;56.73;;
11835;SDS011;5977;51.972;7.640;2023-06-14T13:03:35;160.63;;;57.67;;
11835;SDS011;5977;51.972;7.640;2023-06-14T13:06:03;160.83;;;57.70;;
11835;SDS011;5977;51.972;7.640;2023-06-14T13:08:31;159.83;;;56.70;;
11835;SDS011;5977;51.972;7.640;2023-06-14T13:10:59;160.67;;;57.97;;
11835;SDS011;5977;51.972;7.640;2023-06-14T13:13:29;160.67;;;58.60;;
11835;SDS011;5977;51.972;7.640;2023-06-14T13:15:58;160.67;;;57.70;;
11835;SDS011;5977;51.972;7.640;2023-06-14T13:18:26;161.93;;;58.80;;
11835;SDS011;5977;51.972;7.640;2023-06-14T13:20:54;160.63;;;58.00;;
11835;SDS011;5977;51.972;7.640;2023-06-14T13:23:22;161.23;;;58.43;;
11835;SDS011;5977;51.972;7.640;2023-06-14T13:25:50;160.27;;;57.30;;
11835;SDS011;5977;51.972;7.640;2023-06-14T13:28:18;160.20;;;57.27;;
11835;SDS011;5977;51.972;7.640;2023-06-14T13:30:48;161.40;;;58.37;;
11835;SDS011;5977;51.972;7.640;2023-06-14T13:33:16;160.43;;;57.80;;
11835;SDS011;5977;51.972;7.640;2023-06-14T13:35:44;160.87;;;57.97;;
11835;SDS011;5977;51.972;7.640;2023-06-14T13:38:12;161.33;;;58.47;;
11835;SDS011;5977;51.972;7.640;2023-06-14T13:40:41;160.23;;;57.57;;
11835;SDS011;5977;51.972;7.640;2023-06-14T13:43:09;161.17;;;58.57;;
11835;SDS011;5977;51.972;7.640;2023-06-14T13:45:37;160.20;;;57.40;;
11835;SDS011;5977;51.972;7.640;2023-06-14T13:48:06;160.27;;;56.87;;
11835;SDS011;5977;51.972;7.640;2023-06-14T13:50:34;160.20;;;56.37;;
11835;SDS011;5977;51.972;7.640;2023-06-14T13:53:02;160.23;;;56.07;;
11835;SDS011;5977;51.972;7.640;2023-06-14T13:55:31;161.23;;;56.30;;
11835;SDS011;5977;51.972;7.640;2023-06-14T13:57:59;160.63;;;55.13;;
11835;SDS011;5977;51.972;7.640;2023-06-14T14:00:27;160.43;;;55.00;;
11835;SDS011;5977;51.972;7.640;2023-06-14T14:02:55;160.87;;;55.30;;
11835;SDS011;5977;51.972;7.640;2023-06-14T14:05:25;160.03;;;54.50;;
11835;SDS011;5977;51.972;7.640;2023-06-14T14:07:56;160.67;;;55.80;;
11835;SDS011;5977;51.972;7.640;2023-06-14T14:10:24;159.77;;;55.30;;
11835;SDS011;5977;51.972;7.640;2023-06-14T14:12:52;161.33;;;55.90;;
11835;SDS011;5977;51.972;7.640;2023-06-14T14:15:21;161.37;;;55.40;;
11835;SDS011;5977;51.972;7.640;2023-06-14T14:17:48;161.70;;;56.00;;
11835;SDS011;5977;51.972;7.640;2023-06-14T14:20:17;160.73;;;55.57;;
11835;SDS011;5977;51.972;7.640;2023-06-14T14:22:47;160.33;;;55.07;;
11835;SDS011;5977;51.972;7.640;2023-06-14T14:25:15;161.70;;;56.03;;
11835;SDS011;5977;51.972;7.640;2023-06-14T14:27:43;160.57;;;54.97;;
11835;SDS011;5977;51.972;7.640;2023-06-14T14:30:11;160.03;;;54.47;;
11835;SDS011;5977;51.972;7.640;2023-06-14T14:32:41;160.17;;;54.17;;
11835;SDS011;5977;51.972;7.640;2023-06-14T14:35:09;160.47;;;54.70;;
11835;SDS011;5977;51.972;7.640;2023-06-14T14:37:38;161.03;;;55.77;;
11835;SDS011;5977;51.972;7.640;2023-06-14T14:40:08;159.47;;;54.63;;
11835;SDS011;5977;51.972;7.640;2023-06-14T14:42:36;160.33;;;54.90;;